»·PEaware :: N112SK KFLG-KPRC

N112SK :: KFLG-KPRC

FLIGHT INFORMATION

Flight Status: Arrived
Operator: Privately registered:
United States
More flights under this callsign
Pilot: Gabor H. (24209)
Aircraft: CESSNA 172 SKYHAWK
(C172)
More flights by this aircraft type
Origin: KFLG Flagstaff Pulliam
United States
Destination: KPRC Love
United States
More flights between these airports :: More routes between these airports
Route: DCT
File this flight plan on PilotEdge
Remarks:
Altitude:
(Current/Filed)
10,500ft
Speed:
(Current/Filed)
160kts
Departed: 04-Nov-19 08:25 AM
Arrived: 04-Nov-19 09:09 AM
Distance/Time
Traveled:
47nm/0:44
Distance/Time
To Go:
Arrived

Flight Plot

Page will automatically refresh every two minutes.

Flight plan parsing failed; only flown route is shown


Map Options




Map Legend


Flown Route
Filed Route
Departure Airport
Arrival Airport
Navaid (VOR, NDB)
Fix

Horizontal Profiles

Position Reports

Time Latitude Longitude Heading Altitude Ground
Speed
04-Nov-19 08:10 35.136614 -111.676370 223 7015ft 0kts
04-Nov-19 08:11 35.136614 -111.676370 223 7015ft 0kts
04-Nov-19 08:12 35.136614 -111.676371 222 7015ft 0kts
04-Nov-19 08:13 35.136614 -111.676371 222 7015ft 0kts
04-Nov-19 08:14 35.136614 -111.676371 222 7015ft 0kts
04-Nov-19 08:15 35.136614 -111.676371 222 7015ft 0kts
04-Nov-19 08:16 35.136614 -111.676371 222 7015ft 0kts
04-Nov-19 08:17 35.136614 -111.676371 222 7015ft 0kts
04-Nov-19 08:18 35.136209 -111.675399 42 7015ft 11kts
04-Nov-19 08:19 35.139538 -111.671836 41 7015ft 16kts
04-Nov-19 08:20 35.143405 -111.667737 40 7015ft 20kts
04-Nov-19 08:21 35.146874 -111.664041 39 7015ft 21kts
04-Nov-19 08:22 35.149837 -111.660450 121 7015ft 0kts
04-Nov-19 08:23 35.149808 -111.660390 120 7015ft 5kts
04-Nov-19 08:24 35.140727 -111.669085 223 7171ft 69kts
04-Nov-19 08:25 35.130843 -111.686181 288 7664ft 52kts
04-Nov-19 08:26 35.136523 -111.706269 297 7957ft 67kts
04-Nov-19 08:27 35.143531 -111.726533 290 8391ft 61kts
04-Nov-19 08:28 35.149754 -111.748599 305 8821ft 76kts
04-Nov-19 08:29 35.164382 -111.770755 310 9246ft 90kts
04-Nov-19 08:30 35.181036 -111.794979 310 9692ft 93kts
04-Nov-19 08:31 35.195430 -111.820192 300 10194ft 88kts
04-Nov-19 08:32 35.204000 -111.847488 290 10693ft 84kts
04-Nov-19 08:33 35.213155 -111.878468 290 10778ft 109kts
04-Nov-19 08:34 35.219260 -111.918010 281 10541ft 127kts
04-Nov-19 08:35 35.224315 -111.959414 281 10501ft 120kts
04-Nov-19 08:36 35.229220 -111.999849 280 10503ft 119kts
04-Nov-19 08:37 35.237442 -112.039276 281 10491ft 118kts
04-Nov-19 08:38 35.245453 -112.078198 281 10488ft 117kts
04-Nov-19 08:39 35.253299 -112.116925 281 10496ft 116kts
04-Nov-19 08:40 35.256941 -112.156034 271 10493ft 116kts
04-Nov-19 08:41 35.256981 -112.195411 261 10490ft 115kts
04-Nov-19 08:42 35.252788 -112.234469 261 10485ft 115kts
04-Nov-19 08:43 35.248604 -112.273423 261 10480ft 115kts
04-Nov-19 08:44 35.244438 -112.312422 261 10475ft 115kts
04-Nov-19 08:45 35.240294 -112.351457 261 10469ft 115kts
04-Nov-19 08:46 35.236170 -112.390540 261 10462ft 115kts
04-Nov-19 08:47 35.231431 -112.429384 252 10456ft 115kts
04-Nov-19 08:48 35.221500 -112.466832 251 10448ft 115kts
04-Nov-19 08:49 35.211350 -112.503990 241 10437ft 115kts
04-Nov-19 08:50 35.187364 -112.529904 221 10486ft 113kts
04-Nov-19 08:51 35.162680 -112.554979 221 10366ft 124kts
04-Nov-19 08:52 35.134958 -112.583972 221 9825ft 139kts
04-Nov-19 08:53 35.097857 -112.602886 201 9231ft 147kts
04-Nov-19 08:54 35.058071 -112.614339 190 8568ft 151kts
04-Nov-19 08:55 35.018636 -112.615521 161 8054ft 145kts
04-Nov-19 08:56 34.980681 -112.599384 161 7553ft 144kts
04-Nov-19 08:57 34.944269 -112.580045 156 7017ft 140kts
04-Nov-19 08:58 34.908757 -112.560964 156 6417ft 139kts
04-Nov-19 08:59 34.875047 -112.542944 156 6218ft 123kts
04-Nov-19 09:00 34.843712 -112.526205 156 6130ft 123kts
04-Nov-19 09:01 34.812873 -112.507916 145 6029ft 123kts
04-Nov-19 09:02 34.785122 -112.483862 144 5981ft 119kts
04-Nov-19 09:03 34.758103 -112.460362 144 5989ft 119kts
04-Nov-19 09:04 34.731119 -112.436906 144 5989ft 119kts
04-Nov-19 09:05 34.703987 -112.413407 145 5969ft 120kts
04-Nov-19 09:06 34.679973 -112.397958 175 5574ft 68kts
04-Nov-19 09:07 34.663316 -112.410136 220 5019ft 76kts
04-Nov-19 09:08 34.656867 -112.415539 130 4973ft 0kts
04-Nov-19 09:09 34.656155 -112.415951 220 4977ft 18kts
04-Nov-19 09:10 34.651327 -112.421082 219 5007ft 16kts
04-Nov-19 09:11 34.647545 -112.425099 214 5020ft 16kts
04-Nov-19 09:12 34.646625 -112.424450 38 5024ft 0kts
04-Nov-19 09:13 34.646625 -112.424450 38 5024ft 0kts
04-Nov-19 09:14 34.646625 -112.424450 38 5024ft 0kts
04-Nov-19 09:15 34.646625 -112.424450 38 5024ft 0kts

Navigation Log

Ident Type
Flight plan parsing failed, navigation log unavailable